createdAt,value
2023-01-02T00:00:07.765Z,60.30
2023-01-02T00:03:00.663Z,52.20
2023-01-02T00:05:29.288Z,56.50
2023-01-02T00:07:57.660Z,59.10
2023-01-02T00:10:26.204Z,53.70
2023-01-02T00:12:54.739Z,59.80
2023-01-02T00:15:23.129Z,56.50
2023-01-02T00:17:51.640Z,39.30
2023-01-02T00:20:20.139Z,58.70
2023-01-02T00:22:48.605Z,47.80
2023-01-02T00:25:17.153Z,55.10
2023-01-02T00:27:45.652Z,59.50
2023-01-02T00:30:14.295Z,45.80
2023-01-02T00:32:42.804Z,38.60
2023-01-02T00:35:11.250Z,49.90
2023-01-02T00:37:39.874Z,51.60
2023-01-02T00:40:13.929Z,58.40
2023-01-02T00:42:43.196Z,59.10
2023-01-02T00:45:11.809Z,56.90
2023-01-02T00:47:40.940Z,62.10
2023-01-02T00:50:09.443Z,57.00
2023-01-02T00:52:37.905Z,57.40
2023-01-02T00:55:06.647Z,61.00
2023-01-02T00:57:35.055Z,63.00
2023-01-02T01:00:06.377Z,56.60
2023-01-02T01:02:35.052Z,59.30
2023-01-02T01:05:04.539Z,58.40
2023-01-02T01:07:33.075Z,58.20
2023-01-02T01:10:01.465Z,58.50
2023-01-02T01:12:29.963Z,59.10
2023-01-02T01:14:58.361Z,55.00
2023-01-02T01:17:26.781Z,55.10
2023-01-02T01:19:55.257Z,57.60
2023-01-02T01:22:23.745Z,50.50
2023-01-02T01:24:52.229Z,53.10
2023-01-02T01:27:20.796Z,52.10
2023-01-02T01:29:49.271Z,54.00
2023-01-02T01:32:17.967Z,49.00
2023-01-02T01:34:46.441Z,53.30
2023-01-02T01:37:15.073Z,53.20
2023-01-02T01:39:43.693Z,54.50
2023-01-02T01:42:16.127Z,58.20
2023-01-02T01:44:55.501Z,54.90
2023-01-02T01:47:47.500Z,57.30
2023-01-02T01:50:35.463Z,53.70
2023-01-02T01:53:13.905Z,51.00
2023-01-02T01:55:55.591Z,48.60
2023-01-02T01:58:39.675Z,46.00
2023-01-02T02:01:08.207Z,48.60
2023-01-02T02:03:37.853Z,57.70
2023-01-02T02:06:06.785Z,57.00
2023-01-02T02:09:01.883Z,54.60
2023-01-02T02:11:31.131Z,63.00
2023-01-02T02:14:01.620Z,55.20
2023-01-02T02:17:15.301Z,57.90
2023-01-02T02:20:16.263Z,51.40
2023-01-02T02:22:53.638Z,48.00
2023-01-02T02:25:49.256Z,46.10
2023-01-02T02:28:45.639Z,53.80
2023-01-02T02:31:41.394Z,49.00
2023-01-02T02:34:22.922Z,52.70
2023-01-02T02:37:00.729Z,52.70
2023-01-02T02:40:27.813Z,52.00
2023-01-02T02:43:25.020Z,46.60
2023-01-02T02:46:15.242Z,44.50
2023-01-02T02:49:24.668Z,50.80
2023-01-02T02:52:25.832Z,35.60
2023-01-02T02:55:13.025Z,45.70
2023-01-02T02:57:44.695Z,47.20
2023-01-02T03:00:19.840Z,62.20
2023-01-02T03:02:48.622Z,43.40
2023-01-02T03:05:41.138Z,50.40
2023-01-02T03:08:38.890Z,62.00
2023-01-02T03:11:08.053Z,62.50
2023-01-02T03:13:55.113Z,56.80
2023-01-02T03:16:42.316Z,58.60
2023-01-02T03:19:32.319Z,60.80
2023-01-02T03:22:22.445Z,59.40
2023-01-02T03:24:54.376Z,60.90
2023-01-02T03:27:31.382Z,65.10
2023-01-02T03:30:06.683Z,69.80
2023-01-02T03:32:50.920Z,59.90
2023-01-02T03:35:26.916Z,55.70
2023-01-02T03:37:59.848Z,59.40
2023-01-02T03:40:39.203Z,72.00
2023-01-02T03:43:16.377Z,59.90
2023-01-02T03:45:59.006Z,63.20
2023-01-02T03:48:49.058Z,64.60
2023-01-02T03:51:17.816Z,62.70
2023-01-02T03:53:49.735Z,65.00
2023-01-02T03:56:35.070Z,65.90
2023-01-02T03:59:28.545Z,59.60
2023-01-02T04:02:11.349Z,58.90
2023-01-02T04:05:00.033Z,62.00
2023-01-02T04:08:01.618Z,55.20
2023-01-02T04:10:31.299Z,59.20
2023-01-02T04:13:07.429Z,60.40
2023-01-02T04:15:38.596Z,54.80
2023-01-02T04:18:25.767Z,61.10
2023-01-02T04:20:59.770Z,55.00
2023-01-02T04:23:40.690Z,57.40
2023-01-02T04:26:18.911Z,56.40
2023-01-02T04:28:49.624Z,44.30
2023-01-02T04:31:42.469Z,44.20
2023-01-02T04:34:16.008Z,47.80
2023-01-02T04:36:45.053Z,61.90
2023-01-02T04:39:13.539Z,60.60
2023-01-02T04:41:42.378Z,59.70
2023-01-02T04:44:10.752Z,55.40
2023-01-02T04:46:39.186Z,62.40
2023-01-02T04:49:07.728Z,61.90
2023-01-02T04:51:36.171Z,69.70
2023-01-02T04:54:04.989Z,67.90
2023-01-02T04:56:33.498Z,75.90
2023-01-02T04:59:02.046Z,79.10
2023-01-02T05:01:30.647Z,75.10
2023-01-02T05:03:59.286Z,67.40
2023-01-02T05:06:27.718Z,74.20
2023-01-02T05:08:56.164Z,64.70
2023-01-02T05:11:24.614Z,62.30
2023-01-02T05:13:53.224Z,67.50
2023-01-02T05:16:21.757Z,73.10
2023-01-02T05:18:50.350Z,69.00
2023-01-02T05:21:37.321Z,69.10
2023-01-02T05:24:06.559Z,74.90
2023-01-02T05:26:35.036Z,71.20
2023-01-02T05:29:03.933Z,65.90
2023-01-02T05:31:32.407Z,61.30
2023-01-02T05:34:00.799Z,67.00
2023-01-02T05:36:29.236Z,58.60
2023-01-02T05:38:57.738Z,58.60
2023-01-02T05:41:26.243Z,60.80
2023-01-02T05:43:55.687Z,57.60
2023-01-02T05:46:24.278Z,59.60
2023-01-02T05:48:52.773Z,54.00
2023-01-02T05:51:21.261Z,48.70
2023-01-02T05:53:51.040Z,42.60
2023-01-02T05:56:21.730Z,48.60
2023-01-02T05:58:50.810Z,41.50
2023-01-02T06:01:27.042Z,38.10
2023-01-02T06:03:59.262Z,40.80
2023-01-02T06:06:34.958Z,38.90
2023-01-02T06:09:05.448Z,37.00
2023-01-02T06:11:35.293Z,35.40
2023-01-02T06:14:03.802Z,36.90
2023-01-02T06:16:32.753Z,33.20
2023-01-02T06:19:01.237Z,33.10
2023-01-02T06:21:30.977Z,37.30
2023-01-02T06:24:00.450Z,46.20
2023-01-02T06:26:34.918Z,47.30
2023-01-02T06:29:05.372Z,47.40
2023-01-02T06:31:33.981Z,50.00
2023-01-02T06:34:04.523Z,45.90
2023-01-02T06:36:34.931Z,48.50
2023-01-02T06:39:03.559Z,43.90
2023-01-02T06:41:32.281Z,39.50
2023-01-02T06:44:00.714Z,35.90
2023-01-02T06:46:29.157Z,45.80
2023-01-02T06:48:57.559Z,32.60
2023-01-02T06:51:26.112Z,47.10
2023-01-02T06:53:55.694Z,42.40
2023-01-02T06:56:24.160Z,33.90
2023-01-02T06:58:52.615Z,32.30
2023-01-02T07:01:23.733Z,41.40
2023-01-02T07:03:52.552Z,34.60
2023-01-02T07:06:23.095Z,43.00
2023-01-02T07:08:52.365Z,42.30
2023-01-02T07:11:24.556Z,42.30
2023-01-02T07:13:54.818Z,30.00
2023-01-02T07:16:24.457Z,36.00
2023-01-02T07:18:54.154Z,38.80
2023-01-02T07:21:22.940Z,34.70
2023-01-02T07:23:51.630Z,34.10
2023-01-02T07:26:20.365Z,40.60
2023-01-02T07:28:48.944Z,41.50
2023-01-02T07:31:20.349Z,32.50
2023-01-02T07:33:49.693Z,35.90
2023-01-02T07:36:19.836Z,48.10
2023-01-02T07:38:57.279Z,50.80
2023-01-02T07:41:26.954Z,52.90
2023-01-02T07:43:58.620Z,54.70
2023-01-02T07:46:27.155Z,41.30
2023-01-02T07:48:55.573Z,41.90
2023-01-02T07:51:27.476Z,44.60
2023-01-02T07:53:59.610Z,43.80
2023-01-02T07:56:28.313Z,51.00
2023-01-02T07:58:56.781Z,46.50
2023-01-02T08:01:25.594Z,53.00
2023-01-02T08:03:54.266Z,60.90
2023-01-02T08:06:22.820Z,53.90
2023-01-02T08:08:51.303Z,43.40
2023-01-02T08:11:22.113Z,46.80
2023-01-02T08:13:51.116Z,55.80
2023-01-02T08:16:22.452Z,57.20
2023-01-02T08:18:55.731Z,51.10
2023-01-02T08:21:26.433Z,62.00
2023-01-02T08:23:54.973Z,60.80
2023-01-02T08:26:24.199Z,60.20
2023-01-02T08:28:52.793Z,54.70
2023-01-02T08:31:22.420Z,65.50
2023-01-02T08:33:51.256Z,58.00
2023-01-02T08:36:20.146Z,56.60
2023-01-02T08:38:48.815Z,52.70
2023-01-02T08:41:35.091Z,39.60
2023-01-02T08:44:04.674Z,46.80
2023-01-02T08:46:52.827Z,49.20
2023-01-02T08:49:21.544Z,55.20
2023-01-02T08:51:50.091Z,51.30
2023-01-02T08:54:18.501Z,38.70
2023-01-02T08:56:47.098Z,48.70
2023-01-02T08:59:15.850Z,51.70
2023-01-02T09:01:44.549Z,49.50
2023-01-02T09:04:13.599Z,48.00
2023-01-02T09:06:44.102Z,48.90
2023-01-02T09:09:15.603Z,44.60
2023-01-02T09:11:51.134Z,43.10
2023-01-02T09:14:21.996Z,39.60
2023-01-02T09:16:52.020Z,47.70
2023-01-02T09:19:20.614Z,46.60
2023-01-02T09:21:49.269Z,48.80
2023-01-02T09:24:18.260Z,49.00
2023-01-02T09:26:47.389Z,47.20
2023-01-02T09:29:16.439Z,43.40
2023-01-02T09:31:44.943Z,47.80
2023-01-02T09:34:13.798Z,50.20
2023-01-02T09:36:42.576Z,48.90
2023-01-02T09:39:11.353Z,46.50
2023-01-02T09:41:43.971Z,49.70
2023-01-02T09:44:22.436Z,46.90
2023-01-02T09:47:00.814Z,46.50
2023-01-02T09:49:51.771Z,44.20
2023-01-02T09:52:35.715Z,46.90
2023-01-02T09:55:15.944Z,49.80
2023-01-02T09:58:27.345Z,48.40
2023-01-02T10:00:56.826Z,48.00
2023-01-02T10:03:56.094Z,46.70
2023-01-02T10:06:42.624Z,49.90
2023-01-02T10:09:22.511Z,49.90
2023-01-02T10:12:11.736Z,48.50
2023-01-02T10:15:01.874Z,47.40
2023-01-02T10:17:37.725Z,49.00
2023-01-02T10:20:28.347Z,53.20
2023-01-02T10:23:06.029Z,48.00
2023-01-02T10:25:41.337Z,47.50
2023-01-02T10:28:38.306Z,48.90
2023-01-02T10:31:31.606Z,49.10
2023-01-02T10:34:09.024Z,50.90
2023-01-02T10:36:42.361Z,47.30
2023-01-02T10:39:25.530Z,46.50
2023-01-02T10:41:58.764Z,43.80
2023-01-02T10:44:35.697Z,41.80
2023-01-02T10:47:34.749Z,47.60
2023-01-02T10:50:14.876Z,43.20
2023-01-02T10:53:06.096Z,49.20
2023-01-02T10:55:44.397Z,44.90
2023-01-02T10:58:21.916Z,42.10
2023-01-02T11:01:19.923Z,49.40
2023-01-02T11:04:10.051Z,44.50
2023-01-02T11:06:59.030Z,47.40
2023-01-02T11:09:36.717Z,49.20
2023-01-02T11:12:11.658Z,41.00
2023-01-02T11:14:40.820Z,40.30
2023-01-02T11:17:22.002Z,46.90
2023-01-02T11:19:56.879Z,49.20
2023-01-02T11:22:37.468Z,45.80
2023-01-02T11:25:22.777Z,43.90
2023-01-02T11:27:52.194Z,51.80
2023-01-02T11:30:52.506Z,44.70
2023-01-02T11:33:27.670Z,46.30
2023-01-02T11:36:05.512Z,41.40
2023-01-02T11:38:54.091Z,48.80
2023-01-02T11:41:50.819Z,44.60
2023-01-02T11:45:00.827Z,47.40
2023-01-02T11:47:45.633Z,45.90
2023-01-02T11:50:26.202Z,39.50
2023-01-02T11:53:13.059Z,32.00
2023-01-02T11:55:59.120Z,41.20
2023-01-02T11:58:37.242Z,41.50
2023-01-02T12:01:34.700Z,40.30
2023-01-02T12:04:03.212Z,41.30
2023-01-02T12:06:39.680Z,40.30
2023-01-02T12:09:24.554Z,42.60
2023-01-02T12:12:21.687Z,43.90
2023-01-02T12:15:09.385Z,40.30
2023-01-02T12:17:51.662Z,44.70
2023-01-02T12:20:29.238Z,36.10
2023-01-02T12:23:47.511Z,40.40
2023-01-02T12:26:25.387Z,42.40
2023-01-02T12:29:47.903Z,40.60
2023-01-02T12:32:59.394Z,44.10
2023-01-02T12:35:41.441Z,50.90
2023-01-02T12:38:19.543Z,45.00
2023-01-02T12:41:19.067Z,45.30
2023-01-02T12:44:33.692Z,41.00
2023-01-02T12:47:23.267Z,34.00
2023-01-02T12:50:01.088Z,40.10
2023-01-02T12:53:20.325Z,42.80
2023-01-02T12:56:26.417Z,40.90
2023-01-02T12:59:31.792Z,39.60
2023-01-02T13:05:43.761Z,44.10
2023-01-02T13:08:28.292Z,41.60
2023-01-02T13:11:01.734Z,45.90
2023-01-02T13:13:36.479Z,41.70
2023-01-02T13:16:24.798Z,43.10
2023-01-02T13:19:33.161Z,41.90
2023-01-02T13:22:32.246Z,37.20
2023-01-02T13:25:01.748Z,42.70
2023-01-02T13:27:30.773Z,38.00
2023-01-02T13:30:03.076Z,45.60
2023-01-02T13:32:32.484Z,45.50
2023-01-02T13:35:04.190Z,48.10
2023-01-02T13:37:32.738Z,45.80
2023-01-02T13:40:03.887Z,45.10
2023-01-02T13:42:55.227Z,43.90
2023-01-02T13:45:34.926Z,42.50
2023-01-02T13:48:38.468Z,37.50
2023-01-02T13:51:23.891Z,42.90
2023-01-02T13:53:53.834Z,43.20
2023-01-02T13:56:28.784Z,45.70
2023-01-02T13:59:42.431Z,41.00
2023-01-02T14:02:21.191Z,42.60
2023-01-02T14:04:50.358Z,49.90
2023-01-02T14:07:29.287Z,46.00
2023-01-02T14:10:10.009Z,52.50
2023-01-02T14:12:53.782Z,51.10
2023-01-02T14:15:26.014Z,43.10
2023-01-02T14:18:12.005Z,44.40
2023-01-02T14:20:44.993Z,45.10
2023-01-02T14:23:34.911Z,48.00
2023-01-02T14:26:03.799Z,49.10
2023-01-02T14:28:39.841Z,46.10
2023-01-02T14:31:29.981Z,46.60
2023-01-02T14:33:58.770Z,49.60
2023-01-02T14:36:49.691Z,47.10
2023-01-02T14:39:33.801Z,57.60
2023-01-02T14:42:40.364Z,50.90
2023-01-02T14:45:22.521Z,53.10
2023-01-02T14:48:10.022Z,49.20
2023-01-02T14:50:43.528Z,53.70
2023-01-02T14:53:33.303Z,57.50
2023-01-02T14:56:20.643Z,55.80
2023-01-02T14:58:51.375Z,57.00
2023-01-02T15:01:43.002Z,50.50
2023-01-02T15:04:39.049Z,51.70
2023-01-02T15:07:32.203Z,49.60
2023-01-02T15:10:17.176Z,54.50
2023-01-02T15:13:11.254Z,54.00
2023-01-02T15:15:48.622Z,56.40
2023-01-02T15:18:34.536Z,60.60
2023-01-02T15:21:16.056Z,57.70
2023-01-02T15:23:48.045Z,53.20
2023-01-02T15:26:32.905Z,54.30
2023-01-02T15:29:07.129Z,57.70
2023-01-02T15:31:39.699Z,50.20
2023-01-02T15:34:10.993Z,52.80
2023-01-02T15:36:43.010Z,53.80
2023-01-02T15:39:23.109Z,51.10
2023-01-02T15:41:57.543Z,45.80
2023-01-02T15:44:53.737Z,52.60
2023-01-02T15:47:27.783Z,53.90
2023-01-02T15:49:58.239Z,51.50
2023-01-02T15:52:32.400Z,57.50
2023-01-02T15:55:01.180Z,46.50
2023-01-02T15:57:32.505Z,51.80
2023-01-02T16:00:01.173Z,53.10
2023-01-02T16:02:35.714Z,54.90
2023-01-02T16:05:13.051Z,58.00
2023-01-02T16:07:43.167Z,56.70
2023-01-02T16:10:20.461Z,60.60
2023-01-02T16:13:30.799Z,60.10
2023-01-02T16:16:16.276Z,64.70
2023-01-02T16:18:52.892Z,65.60
2023-01-02T16:21:21.962Z,62.40
2023-01-02T16:23:55.203Z,66.40
2023-01-02T16:26:33.996Z,68.90
2023-01-02T16:29:02.486Z,71.70
2023-01-02T16:32:00.368Z,73.60
2023-01-02T16:34:38.405Z,65.00
2023-01-02T16:37:17.173Z,69.70
2023-01-02T16:39:49.478Z,66.10
2023-01-02T16:42:36.421Z,55.70
2023-01-02T16:45:07.066Z,56.50
2023-01-02T16:47:43.922Z,59.20
2023-01-02T16:50:19.260Z,57.40
2023-01-02T16:52:47.641Z,57.60
2023-01-02T16:55:22.148Z,57.70
2023-01-02T16:57:51.663Z,70.30
2023-01-02T17:00:22.917Z,67.10
2023-01-02T17:02:51.552Z,66.50
2023-01-02T17:05:34.221Z,67.50
2023-01-02T17:08:03.368Z,67.00
2023-01-02T17:10:32.244Z,61.30
2023-01-02T17:13:04.965Z,57.50
2023-01-02T17:15:33.545Z,56.00
2023-01-02T17:18:02.308Z,69.60
2023-01-02T17:20:31.504Z,59.80
2023-01-02T17:23:00.012Z,69.60
2023-01-02T17:25:28.472Z,66.20
2023-01-02T17:27:57.460Z,52.80
2023-01-02T17:30:26.688Z,60.80
2023-01-02T17:33:00.060Z,57.70
2023-01-02T17:35:35.186Z,63.30
2023-01-02T17:38:04.381Z,63.00
2023-01-02T17:40:33.276Z,79.40
2023-01-02T17:43:02.068Z,84.70
2023-01-02T17:45:30.639Z,88.30
2023-01-02T17:48:04.128Z,85.00
2023-01-02T17:50:51.800Z,87.60
2023-01-02T17:53:20.590Z,80.70
2023-01-02T17:56:20.855Z,96.60
2023-01-02T17:58:48.020Z,98.10
2023-01-02T18:01:19.847Z,100.00
2023-01-02T18:03:50.059Z,98.30
2023-01-02T18:06:19.022Z,95.70
2023-01-02T18:08:47.717Z,101.10
2023-01-02T18:11:16.742Z,104.70
2023-01-02T18:13:53.912Z,93.40
2023-01-02T18:16:34.227Z,94.50
2023-01-02T18:19:04.464Z,87.40
2023-01-02T18:21:34.463Z,89.60
2023-01-02T18:24:11.333Z,94.90
2023-01-02T18:26:40.300Z,94.00
2023-01-02T18:29:22.290Z,79.60
2023-01-02T18:31:51.755Z,78.30
2023-01-02T18:37:26.144Z,89.80
2023-01-02T18:39:56.659Z,90.20
2023-01-02T18:42:34.133Z,116.10
2023-01-02T18:45:12.831Z,110.70
2023-01-02T18:47:42.111Z,113.50
2023-01-02T18:50:18.293Z,98.00
2023-01-02T18:52:52.287Z,100.50
2023-01-02T18:55:26.735Z,94.60
2023-01-02T18:58:07.741Z,94.00
2023-01-02T19:00:39.865Z,97.40
2023-01-02T19:03:08.940Z,95.50
2023-01-02T19:05:44.257Z,101.60
2023-01-02T19:08:33.938Z,106.80
2023-01-02T19:14:41.533Z,146.60
2023-01-02T19:17:31.778Z,138.50
2023-01-02T19:20:00.622Z,118.00
2023-01-02T19:22:34.880Z,121.70
2023-01-02T19:25:22.354Z,107.10
2023-01-02T19:27:54.263Z,101.60
2023-01-02T19:30:38.790Z,106.30
2023-01-02T19:33:40.711Z,109.70
2023-01-02T19:36:19.109Z,117.10
2023-01-02T19:38:50.922Z,110.80
2023-01-02T19:41:39.327Z,106.10
2023-01-02T19:44:08.098Z,117.30
2023-01-02T19:46:36.596Z,107.70
2023-01-02T19:49:05.159Z,107.20
2023-01-02T19:51:33.702Z,109.80
2023-01-02T19:54:04.421Z,113.10
2023-01-02T19:56:33.348Z,104.70
2023-01-02T19:59:01.945Z,111.50
2023-01-02T20:01:30.562Z,113.00
2023-01-02T20:03:59.165Z,110.80
2023-01-02T20:06:28.737Z,104.90
2023-01-02T20:08:57.387Z,103.80
2023-01-02T20:11:44.218Z,97.70
2023-01-02T20:14:12.859Z,98.70
2023-01-02T20:16:41.394Z,98.30
2023-01-02T20:19:10.163Z,102.90
2023-01-02T20:21:38.760Z,93.50
2023-01-02T20:24:07.671Z,93.70
2023-01-02T20:26:36.284Z,94.60
2023-01-02T20:29:05.229Z,91.50
2023-01-02T20:31:33.815Z,92.00
2023-01-02T20:34:02.591Z,89.10
2023-01-02T20:36:31.227Z,92.30
2023-01-02T20:38:59.690Z,92.30
2023-01-02T20:41:28.342Z,94.50
2023-01-02T20:43:56.817Z,91.10
2023-01-02T20:46:25.219Z,94.60
2023-01-02T20:48:53.882Z,97.30
2023-01-02T20:51:22.491Z,96.10
2023-01-02T20:53:50.977Z,100.80
2023-01-02T20:56:19.631Z,96.60
2023-01-02T20:58:49.371Z,96.50
2023-01-02T21:01:19.874Z,94.90
2023-01-02T21:03:49.800Z,97.10
2023-01-02T21:06:18.508Z,93.00
2023-01-02T21:08:47.340Z,97.70
2023-01-02T21:11:15.807Z,99.30
2023-01-02T21:13:44.380Z,100.00
2023-01-02T21:16:12.903Z,96.00
2023-01-02T21:18:43.712Z,99.80
2023-01-02T21:21:20.320Z,106.80
2023-01-02T21:23:50.234Z,93.80
2023-01-02T21:26:21.882Z,97.40
2023-01-02T21:28:50.702Z,98.10
2023-01-02T21:31:20.697Z,101.80
2023-01-02T21:33:49.297Z,93.60
2023-01-02T21:36:17.857Z,94.10
2023-01-02T21:38:46.278Z,99.00
2023-01-02T21:41:36.448Z,93.20
2023-01-02T21:44:05.028Z,94.50
2023-01-02T21:46:33.810Z,93.20
2023-01-02T21:49:02.357Z,95.10
2023-01-02T21:53:47.979Z,90.30
2023-01-02T21:56:16.460Z,96.80
2023-01-02T21:58:44.958Z,91.90
2023-01-02T22:01:13.884Z,94.30
2023-01-02T22:03:44.176Z,99.70
2023-01-02T22:06:13.482Z,91.60
2023-01-02T22:08:41.921Z,87.90
2023-01-02T22:11:29.199Z,93.20
2023-01-02T22:13:57.825Z,86.30
2023-01-02T22:16:26.363Z,91.00
2023-01-02T22:18:55.050Z,94.40
2023-01-02T22:21:23.736Z,104.10
2023-01-02T22:23:52.404Z,97.90
2023-01-02T22:26:20.978Z,92.70
2023-01-02T22:28:50.283Z,92.90
2023-01-02T22:31:18.768Z,90.40
2023-01-02T22:33:47.267Z,92.50
2023-01-02T22:36:16.268Z,89.50
2023-01-02T22:39:17.551Z,89.40
2023-01-02T22:41:42.508Z,92.90
2023-01-02T22:44:20.638Z,92.60
2023-01-02T22:46:53.648Z,93.30
2023-01-02T22:49:29.196Z,97.20
2023-01-02T22:52:07.018Z,101.70
2023-01-02T22:54:36.053Z,91.80
2023-01-02T22:57:14.707Z,98.40
2023-01-02T22:59:43.339Z,104.90
2023-01-02T23:02:16.010Z,101.10
2023-01-02T23:04:45.048Z,106.80
2023-01-02T23:07:24.325Z,100.00
2023-01-02T23:09:53.246Z,97.20
2023-01-02T23:12:21.827Z,91.00
2023-01-02T23:14:50.959Z,97.90
2023-01-02T23:17:37.974Z,100.00
2023-01-02T23:20:07.675Z,99.20
2023-01-02T23:22:36.183Z,101.10
2023-01-02T23:25:07.664Z,104.30
2023-01-02T23:27:36.267Z,99.50
2023-01-02T23:30:06.387Z,96.70
2023-01-02T23:32:34.962Z,98.40
2023-01-02T23:35:03.636Z,98.10
2023-01-02T23:37:32.095Z,95.30
2023-01-02T23:40:00.614Z,97.10
2023-01-02T23:42:29.230Z,93.70
2023-01-02T23:44:57.583Z,91.40
2023-01-02T23:47:26.150Z,91.30
2023-01-02T23:49:54.703Z,93.40
2023-01-02T23:52:23.258Z,93.80
2023-01-02T23:54:52.099Z,92.90
2023-01-02T23:57:20.566Z,88.50
2023-01-02T23:59:49.112Z,86.90
